Time;durP1;ratioP1;P1;durP2;ratioP2;P2;SDS_P1;SDS_P2;PMS_P1;PMS_P2;Temp;Humidity;BMP_temperature;BMP_pressure;BME280_temperature;BME280_humidity;BME280_pressure;Samples;Min_cycle;Max_cycle;Signal;HPM_P1;HPM_P2
2021/12/28 00:01:21;;;;;;;13.95;8.95;;;21.50;60.10;;;;;;7841782;28;20194;-61
2021/12/28 00:05:09;;;;;;;13.60;9.18;;;21.50;60.00;;;;;;7841706;28;20235;-61
2021/12/28 00:08:55;;;;;;;13.93;9.32;;;21.50;59.90;;;;;;7840506;28;20225;-61
2021/12/28 00:12:41;;;;;;;14.85;9.48;;;21.40;59.90;;;;;;7840574;28;20214;-61
2021/12/28 00:20:15;;;;;;;13.45;9.27;;;21.40;59.80;;;;;;7840860;28;20174;-61
2021/12/28 00:24:02;;;;;;;14.82;8.70;;;21.40;60.00;;;;;;7842083;28;20894;-60
2021/12/28 00:27:47;;;;;;;13.05;9.10;;;21.40;59.90;;;;;;7840561;28;20663;-60
2021/12/28 00:31:33;;;;;;;14.75;9.38;;;21.40;59.90;;;;;;7841005;28;20621;-60
2021/12/28 00:35:22;;;;;;;12.50;8.90;;;21.40;60.00;;;;;;7841168;28;20178;-61
2021/12/28 00:39:07;;;;;;;12.55;8.95;;;21.40;60.00;;;;;;7840206;28;20178;-60
2021/12/28 00:42:53;;;;;;;13.07;8.70;;;21.40;60.00;;;;;;7840345;28;20229;-61
2021/12/28 00:46:38;;;;;;;13.43;9.43;;;21.30;60.00;;;;;;7840482;28;20189;-61
2021/12/28 00:50:26;;;;;;;14.82;9.05;;;21.30;60.00;;;;;;7839948;28;20218;-60
2021/12/28 00:54:12;;;;;;;15.63;9.25;;;21.40;60.10;;;;;;7840265;28;20202;-60
2021/12/28 00:57:58;;;;;;;14.55;8.88;;;21.30;60.10;;;;;;7839599;28;20174;-61
2021/12/28 01:01:43;;;;;;;16.10;9.13;;;21.30;60.00;;;;;;7840007;28;20280;-61
2021/12/28 01:05:29;;;;;;;15.73;9.45;;;21.30;60.00;;;;;;7839965;28;20177;-61
2021/12/28 01:09:15;;;;;;;15.07;9.20;;;21.30;60.00;;;;;;7839122;28;20265;-61
2021/12/28 01:13:01;;;;;;;13.63;9.13;;;21.30;60.20;;;;;;7839686;28;20220;-61
2021/12/28 01:16:46;;;;;;;13.15;8.30;;;21.20;60.10;;;;;;7839507;28;20181;-61
2021/12/28 01:20:32;;;;;;;14.10;8.95;;;21.20;60.20;;;;;;7838452;28;20817;-61
2021/12/28 01:24:18;;;;;;;12.48;8.98;;;21.30;60.50;;;;;;7839477;28;20177;-61
2021/12/28 01:28:06;;;;;;;12.80;8.63;;;21.20;60.40;;;;;;7838638;28;20205;-60
2021/12/28 01:31:52;;;;;;;12.80;8.57;;;21.20;60.40;;;;;;7838999;28;20212;-61
2021/12/28 01:35:38;;;;;;;16.20;8.85;;;21.20;60.50;;;;;;7839078;28;20186;-60
2021/12/28 01:39:23;;;;;;;13.68;8.77;;;21.20;60.50;;;;;;7836442;28;20182;-60
2021/12/28 01:43:17;;;;;;;12.98;8.70;;;21.20;60.40;;;;;;7838757;28;20273;-61
2021/12/28 01:47:04;;;;;;;13.73;8.70;;;21.20;60.50;;;;;;7838953;28;20256;-59
2021/12/28 01:50:53;;;;;;;14.07;8.68;;;21.20;60.60;;;;;;7837566;28;20566;-61
2021/12/28 01:54:39;;;;;;;12.63;8.75;;;21.10;60.50;;;;;;7838576;28;20261;-61
2021/12/28 01:58:25;;;;;;;12.20;9.25;;;21.10;60.50;;;;;;7837757;28;20162;-59
2021/12/28 02:02:11;;;;;;;13.27;8.18;;;21.10;60.70;;;;;;7838235;28;20732;-61
2021/12/28 02:05:56;;;;;;;13.20;8.70;;;21.10;60.80;;;;;;7838325;28;20588;-60
2021/12/28 02:09:42;;;;;;;11.77;8.57;;;21.10;60.80;;;;;;7837462;28;20184;-61
2021/12/28 02:13:27;;;;;;;11.75;8.10;;;21.10;60.80;;;;;;7837930;28;20294;-59
2021/12/28 02:17:14;;;;;;;14.13;9.50;;;21.10;60.80;;;;;;7837990;28;20610;-61
2021/12/28 02:21:02;;;;;;;11.13;8.25;;;21.10;61.70;;;;;;7837366;28;20202;-61
2021/12/28 02:24:47;;;;;;;13.05;9.15;;;21.10;60.80;;;;;;7838005;28;20174;-60
2021/12/28 02:28:33;;;;;;;11.27;8.82;;;21.10;60.80;;;;;;7837134;28;20177;-60
2021/12/28 02:32:19;;;;;;;14.25;9.35;;;21.10;60.80;;;;;;7837731;28;20265;-61
2021/12/28 02:36:04;;;;;;;14.40;9.18;;;21.10;60.80;;;;;;7843870;28;20179;-60
2021/12/28 02:39:51;;;;;;;14.45;9.35;;;21.10;60.80;;;;;;7843601;28;20178;-60
2021/12/28 02:43:38;;;;;;;13.20;8.48;;;21.00;60.80;;;;;;7844026;28;20248;-61
2021/12/28 02:47:23;;;;;;;12.65;8.70;;;21.00;60.90;;;;;;7843957;28;20174;-61
2021/12/28 02:51:12;;;;;;;13.57;9.00;;;21.00;60.80;;;;;;7843021;28;20355;-61
2021/12/28 02:54:58;;;;;;;14.80;9.55;;;21.00;61.00;;;;;;7843802;28;20647;-60
2021/12/28 02:58:49;;;;;;;13.02;8.95;;;21.00;61.00;;;;;;7842941;28;20221;-61
2021/12/28 03:02:35;;;;;;;12.98;9.13;;;21.00;61.10;;;;;;7843606;28;20214;-60
2021/12/28 03:06:22;;;;;;;14.55;10.27;;;21.00;61.10;;;;;;7843979;28;20189;-61
2021/12/28 03:10:08;;;;;;;14.40;9.82;;;21.00;61.20;;;;;;7843157;28;20189;-61
2021/12/28 03:13:57;;;;;;;15.25;9.88;;;21.00;61.20;;;;;;7843519;28;20288;-61
2021/12/28 03:17:42;;;;;;;13.95;9.77;;;21.10;61.10;;;;;;7842490;28;20200;-61
2021/12/28 03:21:28;;;;;;;15.30;10.10;;;21.10;61.10;;;;;;7843074;28;20193;-60
2021/12/28 03:25:13;;;;;;;13.35;9.68;;;21.20;61.10;;;;;;7843259;28;20202;-58
2021/12/28 03:28:59;;;;;;;14.88;10.30;;;21.20;60.90;;;;;;7842452;28;20202;-59
2021/12/28 03:32:45;;;;;;;15.13;9.77;;;21.30;60.90;;;;;;7842635;28;20217;-60
2021/12/28 03:36:31;;;;;;;16.08;9.95;;;21.30;60.90;;;;;;7842506;28;20182;-61
2021/12/28 03:40:17;;;;;;;16.15;10.77;;;21.30;60.80;;;;;;7841801;28;20178;-60
2021/12/28 03:44:04;;;;;;;16.02;10.75;;;21.40;60.70;;;;;;7842064;28;20662;-61
2021/12/28 03:47:49;;;;;;;18.85;11.05;;;21.40;60.70;;;;;;7841602;28;20185;-60
2021/12/28 03:51:35;;;;;;;15.38;10.32;;;21.40;60.70;;;;;;7841841;28;20222;-59
2021/12/28 03:55:25;;;;;;;16.30;10.90;;;21.50;60.70;;;;;;7842045;28;20627;-61
2021/12/28 03:59:10;;;;;;;15.15;10.40;;;21.50;60.60;;;;;;7841266;28;20181;-60
2021/12/28 04:02:56;;;;;;;16.48;10.77;;;21.60;60.70;;;;;;7841723;28;20201;-60
2021/12/28 04:06:42;;;;;;;15.90;11.20;;;21.60;60.60;;;;;;7842290;28;20178;-61
2021/12/28 04:10:37;;;;;;;15.45;10.13;;;21.60;60.60;;;;;;7840855;28;20228;-60
2021/12/28 04:14:23;;;;;;;15.57;10.43;;;21.60;60.40;;;;;;7841422;28;20292;-61
2021/12/28 04:18:08;;;;;;;15.13;9.90;;;21.70;60.30;;;;;;7840685;28;20178;-61
2021/12/28 04:21:54;;;;;;;16.90;10.75;;;21.70;60.40;;;;;;7841124;28;20744;-60
2021/12/28 04:25:39;;;;;;;19.15;10.73;;;21.60;60.20;;;;;;7841092;28;20659;-61
2021/12/28 04:29:25;;;;;;;17.50;10.88;;;21.60;60.20;;;;;;7840358;28;20175;-60
2021/12/28 04:33:10;;;;;;;18.65;10.82;;;21.60;60.10;;;;;;7840912;28;20217;-62
2021/12/28 04:36:56;;;;;;;15.10;10.82;;;21.60;60.20;;;;;;7840879;28;20174;-61
2021/12/28 04:40:41;;;;;;;19.15;11.18;;;21.60;60.10;;;;;;7840051;28;20190;-61
2021/12/28 04:44:27;;;;;;;17.95;11.15;;;21.60;60.10;;;;;;7840887;28;20229;-61
2021/12/28 04:48:12;;;;;;;16.85;11.18;;;21.60;60.10;;;;;;7840284;28;20264;-61
2021/12/28 04:51:59;;;;;;;17.45;10.15;;;21.50;60.10;;;;;;7840612;28;20232;-61
2021/12/28 04:55:47;;;;;;;14.77;10.88;;;21.60;60.10;;;;;;7839682;28;20233;-61
2021/12/28 04:59:34;;;;;;;16.70;10.75;;;21.50;60.10;;;;;;7839629;28;20258;-59
2021/12/28 05:03:20;;;;;;;16.33;10.68;;;21.50;60.00;;;;;;7840222;28;20197;-61
2021/12/28 05:07:05;;;;;;;17.13;10.75;;;21.50;60.10;;;;;;7840043;28;20182;-61
2021/12/28 05:10:52;;;;;;;16.95;10.80;;;21.50;60.10;;;;;;7839012;28;20198;-62
2021/12/28 05:14:41;;;;;;;19.45;11.60;;;21.40;60.00;;;;;;7839730;28;20166;-61
2021/12/28 05:18:26;;;;;;;17.65;10.65;;;21.50;60.00;;;;;;7838953;28;20182;-62
2021/12/28 05:22:12;;;;;;;14.70;10.48;;;21.40;60.00;;;;;;7839414;28;20738;-61
2021/12/28 05:25:58;;;;;;;18.83;10.30;;;21.40;60.00;;;;;;7839510;28;20236;-62
2021/12/28 05:29:43;;;;;;;17.02;10.45;;;21.40;60.00;;;;;;7838635;28;20667;-61
2021/12/28 05:33:29;;;;;;;15.65;10.52;;;21.40;60.00;;;;;;7839142;28;20216;-62
2021/12/28 05:37:14;;;;;;;16.10;10.88;;;21.30;60.00;;;;;;7839044;28;20290;-63
2021/12/28 05:41:00;;;;;;;16.00;10.60;;;21.30;60.00;;;;;;7837880;28;20194;-62
2021/12/28 05:44:46;;;;;;;14.25;9.88;;;21.30;60.00;;;;;;7838897;28;20171;-63
2021/12/28 05:48:31;;;;;;;19.25;10.38;;;21.30;60.00;;;;;;7837993;28;20185;-63
2021/12/28 05:52:17;;;;;;;16.20;10.55;;;21.30;60.00;;;;;;7838351;28;20209;-62
2021/12/28 05:56:03;;;;;;;15.43;10.48;;;21.30;60.00;;;;;;7838498;28;20208;-62
2021/12/28 05:59:48;;;;;;;16.83;11.07;;;21.20;60.00;;;;;;7837886;28;20176;-63
2021/12/28 06:03:34;;;;;;;16.33;10.35;;;21.30;60.00;;;;;;7838359;28;20244;-63
2021/12/28 06:07:21;;;;;;;15.07;10.52;;;21.20;60.00;;;;;;7838477;28;20186;-63
2021/12/28 06:11:11;;;;;;;14.80;10.35;;;21.20;60.00;;;;;;7837578;28;20305;-63
2021/12/28 06:14:57;;;;;;;13.65;9.80;;;21.20;60.00;;;;;;7838676;28;20255;-62
2021/12/28 06:18:43;;;;;;;15.73;10.13;;;21.20;60.00;;;;;;7852190;28;20647;-62
2021/12/28 06:22:28;;;;;;;13.85;9.15;;;21.20;60.00;;;;;;7851932;28;20205;-62
2021/12/28 06:26:14;;;;;;;16.52;10.32;;;21.20;60.00;;;;;;7864717;28;20273;-62
2021/12/28 06:30:00;;;;;;;15.10;10.65;;;21.10;60.00;;;;;;7844245;28;20243;-62
2021/12/28 06:33:45;;;;;;;15.23;10.02;;;21.10;60.00;;;;;;7838110;28;20217;-62
2021/12/28 06:37:31;;;;;;;14.35;9.60;;;21.10;60.20;;;;;;7858800;28;20189;-64
2021/12/28 06:41:17;;;;;;;13.75;9.05;;;21.10;60.20;;;;;;7868854;28;20280;-62
2021/12/28 06:45:03;;;;;;;14.63;9.85;;;21.10;60.20;;;;;;7868890;28;20181;-60
2021/12/28 06:48:49;;;;;;;14.85;10.57;;;21.10;60.20;;;;;;7868085;28;20192;-63
2021/12/28 06:52:36;;;;;;;21.92;9.95;;;21.10;60.30;;;;;;7868422;28;20705;-63
2021/12/28 06:56:22;;;;;;;17.48;9.90;;;21.00;60.30;;;;;;7868754;28;20177;-62
2021/12/28 07:00:12;;;;;;;20.77;10.00;;;21.10;61.00;;;;;;7867814;28;20252;-64
2021/12/28 07:03:58;;;;;;;27.50;10.25;;;21.10;60.50;;;;;;7868379;28;20658;-62
2021/12/28 07:07:43;;;;;;;29.40;10.57;;;21.00;60.60;;;;;;7867349;28;20616;-63
2021/12/28 07:11:29;;;;;;;21.15;10.55;;;21.00;60.70;;;;;;7868252;28;20204;-62
2021/12/28 07:15:14;;;;;;;31.30;10.75;;;21.00;60.80;;;;;;7841304;28;20205;-63
2021/12/28 07:19:00;;;;;;;26.98;10.30;;;21.00;61.00;;;;;;7837214;28;20649;-62
2021/12/28 07:22:46;;;;;;;18.92;9.30;;;21.00;61.00;;;;;;7842910;28;20229;-62
2021/12/28 07:26:31;;;;;;;22.98;10.02;;;20.90;61.00;;;;;;7854248;28;20261;-63
2021/12/28 07:30:17;;;;;;;47.10;18.05;;;20.90;61.00;;;;;;7904526;28;20657;-63
2021/12/28 07:34:03;;;;;;;138.40;57.55;;;20.90;61.10;;;;;;7905071;28;20211;-62
2021/12/28 07:37:48;;;;;;;237.55;109.10;;;20.90;61.20;;;;;;7904420;28;20184;-61
2021/12/28 07:41:34;;;;;;;336.33;148.07;;;20.90;61.30;;;;;;7891698;28;20213;-62
2021/12/28 07:45:19;;;;;;;481.55;227.10;;;20.80;61.40;;;;;;7868406;28;20193;-60
2021/12/28 07:49:05;;;;;;;273.40;121.15;;;20.80;61.50;;;;;;7841245;28;20178;-62
2021/12/28 07:52:52;;;;;;;353.15;153.85;;;20.90;61.50;;;;;;7854188;28;20682;-62
2021/12/28 07:56:37;;;;;;;304.02;137.52;;;20.90;61.70;;;;;;7863818;28;20172;-61
2021/12/28 08:00:24;;;;;;;281.40;128.40;;;20.80;62.10;;;;;;7872139;28;20216;-62
2021/12/28 08:04:09;;;;;;;309.65;140.75;;;20.80;61.50;;;;;;7872851;28;20200;-61
2021/12/28 08:07:55;;;;;;;354.65;159.77;;;20.90;61.00;;;;;;7871155;28;20189;-61
2021/12/28 08:11:42;;;;;;;353.42;159.85;;;20.90;61.00;;;;;;7871345;28;20233;-62
2021/12/28 08:15:28;;;;;;;340.73;148.48;;;20.90;60.80;;;;;;7872754;28;20313;-61
2021/12/28 08:19:13;;;;;;;342.50;146.40;;;20.90;60.70;;;;;;7872090;28;20169;-61
2021/12/28 08:22:59;;;;;;;310.20;138.18;;;20.90;60.70;;;;;;7872964;28;20201;-61
2021/12/28 08:26:45;;;;;;;303.45;135.02;;;20.90;60.70;;;;;;7870785;28;20185;-63
2021/12/28 08:30:36;;;;;;;265.20;115.40;;;20.90;60.80;;;;;;7892943;28;20879;-62
2021/12/28 08:34:21;;;;;;;254.07;114.88;;;20.90;61.20;;;;;;7903321;28;20208;-64
2021/12/28 08:38:09;;;;;;;247.27;109.22;;;20.90;61.40;;;;;;7902493;28;20172;-62
2021/12/28 08:41:54;;;;;;;238.68;102.25;;;20.90;61.50;;;;;;7902954;28;20350;-63
2021/12/28 08:45:41;;;;;;;230.70;101.78;;;20.80;61.40;;;;;;7867197;28;20189;-62
2021/12/28 08:49:26;;;;;;;219.02;97.30;;;20.80;61.40;;;;;;7839713;28;20189;-62
2021/12/28 08:53:12;;;;;;;209.95;97.32;;;20.90;61.60;;;;;;7840124;28;20245;-62
2021/12/28 08:56:58;;;;;;;203.23;89.22;;;20.90;61.50;;;;;;7840286;28;20166;-63
2021/12/28 09:00:44;;;;;;;203.40;89.40;;;20.90;61.50;;;;;;7821481;28;20863;-61
2021/12/28 09:04:29;;;;;;;198.23;87.05;;;20.80;61.50;;;;;;7838427;28;20182;-63
2021/12/28 09:08:18;;;;;;;188.45;82.15;;;20.80;61.50;;;;;;7838339;28;20214;-62
2021/12/28 09:12:05;;;;;;;177.57;79.97;;;20.80;61.40;;;;;;7838335;28;20206;-63
2021/12/28 09:15:50;;;;;;;183.38;78.00;;;20.90;61.50;;;;;;7839655;28;20634;-62
2021/12/28 09:19:36;;;;;;;165.18;73.95;;;20.80;61.50;;;;;;7838822;28;20177;-63
2021/12/28 09:23:22;;;;;;;158.88;72.78;;;20.90;61.50;;;;;;7839453;28;20201;-63
2021/12/28 09:27:08;;;;;;;154.23;71.82;;;20.90;61.50;;;;;;7839388;28;20176;-62
2021/12/28 09:30:53;;;;;;;159.35;67.38;;;20.80;61.50;;;;;;7838501;28;20201;-63
2021/12/28 09:34:42;;;;;;;138.38;63.97;;;20.80;61.40;;;;;;7839158;28;20213;-63
2021/12/28 09:38:27;;;;;;;143.77;61.90;;;20.90;61.50;;;;;;7838407;28;20544;-62
2021/12/28 09:42:13;;;;;;;133.10;61.83;;;20.80;61.50;;;;;;7839069;28;20198;-61
2021/12/28 09:45:59;;;;;;;130.70;59.72;;;20.80;61.50;;;;;;7838913;28;20287;-63
2021/12/28 09:49:45;;;;;;;125.82;57.15;;;20.80;61.50;;;;;;7837994;28;20178;-61
2021/12/28 09:53:31;;;;;;;120.53;56.28;;;20.90;61.60;;;;;;7838412;28;20210;-62
2021/12/28 09:57:18;;;;;;;121.75;56.45;;;20.90;61.60;;;;;;7838557;28;20174;-61
2021/12/28 10:01:05;;;;;;;108.43;51.42;;;20.80;61.50;;;;;;7837724;28;20194;-61
2021/12/28 10:04:53;;;;;;;110.95;50.80;;;20.80;61.50;;;;;;7838557;28;20215;-61
2021/12/28 10:08:39;;;;;;;103.25;49.13;;;20.90;61.60;;;;;;7838624;28;20785;-62
2021/12/28 10:12:30;;;;;;;103.50;47.22;;;20.90;61.50;;;;;;7838552;28;20630;-62
2021/12/28 10:16:15;;;;;;;98.60;45.00;;;20.90;61.60;;;;;;7838586;28;20166;-62
2021/12/28 10:20:08;;;;;;;94.05;44.70;;;20.80;61.50;;;;;;7837684;28;20677;-61
2021/12/28 10:23:57;;;;;;;90.80;41.40;;;20.80;61.50;;;;;;7838389;28;20230;-62
2021/12/28 10:27:48;;;;;;;84.68;42.38;;;20.80;61.50;;;;;;7837479;28;20843;-62
2021/12/28 10:31:34;;;;;;;90.25;42.88;;;20.80;61.50;;;;;;7837726;28;20201;-62
2021/12/28 10:35:23;;;;;;;77.07;37.65;;;20.90;61.70;;;;;;7838029;28;20182;-62
2021/12/28 10:39:08;;;;;;;83.10;39.63;;;20.80;61.50;;;;;;7837146;28;20174;-62
2021/12/28 10:42:56;;;;;;;76.50;36.55;;;20.90;61.60;;;;;;7837386;28;20748;-63
2021/12/28 10:46:42;;;;;;;71.88;34.65;;;20.90;61.60;;;;;;7837732;28;20198;-63
2021/12/28 10:50:38;;;;;;;76.35;35.22;;;20.90;61.60;;;;;;7836736;28;20217;-62
2021/12/28 10:54:23;;;;;;;82.90;35.53;;;20.90;61.60;;;;;;7838719;28;20205;-63
2021/12/28 10:58:18;;;;;;;68.57;32.50;;;20.90;61.50;;;;;;7849745;28;20196;-62
2021/12/28 11:02:04;;;;;;;63.90;32.20;;;20.80;61.50;;;;;;7905065;28;20214;-64
2021/12/28 11:05:52;;;;;;;63.63;30.42;;;20.90;61.70;;;;;;7906039;28;20173;-63
2021/12/28 11:09:48;;;;;;;62.58;30.40;;;20.90;61.60;;;;;;7905062;28;20292;-62
2021/12/28 11:13:35;;;;;;;60.20;28.20;;;20.90;61.80;;;;;;7905000;28;20231;-62
2021/12/28 11:17:31;;;;;;;63.78;28.95;;;20.90;61.60;;;;;;7905354;28;20176;-62
2021/12/28 11:21:28;;;;;;;155.40;64.65;;;20.80;61.50;;;;;;7905331;28;20204;-63
2021/12/28 11:25:18;;;;;;;184.93;79.75;;;20.90;61.90;;;;;;7902223;28;20185;-63
2021/12/28 11:29:15;;;;;;;211.70;92.05;;;20.80;62.10;;;;;;7873315;28;20173;-63
2021/12/28 11:33:05;;;;;;;224.20;97.25;;;20.80;62.10;;;;;;7873362;28;20749;-63
2021/12/28 11:36:52;;;;;;;247.35;97.47;;;20.80;62.20;;;;;;7860777;28;20178;-63
2021/12/28 11:40:37;;;;;;;161.40;68.45;;;20.90;61.70;;;;;;7841882;28;20279;-61
2021/12/28 11:44:25;;;;;;;141.63;62.42;;;20.90;61.80;;;;;;7843089;28;20189;-62
2021/12/28 11:48:11;;;;;;;131.75;56.67;;;20.90;61.40;;;;;;7838953;28;20181;-63
2021/12/28 11:52:00;;;;;;;130.85;55.47;;;20.90;61.80;;;;;;7839297;28;20210;-63
2021/12/28 11:55:46;;;;;;;122.78;51.13;;;20.90;61.80;;;;;;7839428;28;20651;-62
2021/12/28 11:59:32;;;;;;;110.35;49.40;;;20.90;61.80;;;;;;7839562;28;20546;-63
2021/12/28 12:03:37;;;;;;;124.65;49.58;;;20.90;61.90;;;;;;7904397;28;20199;-63
2021/12/28 12:07:26;;;;;;;98.00;45.58;;;20.90;62.10;;;;;;7901864;28;20169;-63
2021/12/28 12:11:11;;;;;;;112.13;45.00;;;20.90;62.10;;;;;;7903341;28;20215;-62
2021/12/28 12:14:57;;;;;;;98.82;45.15;;;20.90;62.20;;;;;;7904127;28;20275;-63
2021/12/28 12:18:50;;;;;;;99.65;42.85;;;20.90;62.20;;;;;;7899895;28;20176;-62
2021/12/28 12:22:38;;;;;;;95.15;42.28;;;20.90;62.20;;;;;;7872585;28;20243;-62
2021/12/28 12:26:32;;;;;;;88.78;40.45;;;20.90;62.20;;;;;;7872282;28;20223;-63
2021/12/28 12:30:17;;;;;;;92.95;39.50;;;20.90;62.30;;;;;;7871361;28;20186;-62
2021/12/28 12:34:20;;;;;;;87.72;37.38;;;20.90;62.20;;;;;;7871941;28;20213;-63
2021/12/28 12:38:12;;;;;;;82.82;35.10;;;20.90;62.20;;;;;;7870151;28;20230;-63
2021/12/28 12:41:57;;;;;;;80.68;34.78;;;20.90;62.20;;;;;;7871853;28;20200;-62
2021/12/28 12:46:04;;;;;;;74.85;33.72;;;20.90;62.20;;;;;;7871586;28;20181;-64
2021/12/28 12:50:08;;;;;;;74.50;32.55;;;20.90;62.20;;;;;;7870749;28;20176;-63
2021/12/28 12:54:16;;;;;;;69.25;30.55;;;20.80;62.10;;;;;;7871343;28;20567;-62
2021/12/28 12:58:14;;;;;;;70.65;31.20;;;20.80;62.10;;;;;;7870652;28;20317;-63
2021/12/28 13:02:05;;;;;;;68.47;29.08;;;20.80;62.10;;;;;;7871155;28;20216;-62
2021/12/28 13:05:51;;;;;;;63.15;27.73;;;20.90;62.10;;;;;;7871145;28;20655;-63
2021/12/28 13:09:39;;;;;;;62.67;27.10;;;20.80;62.10;;;;;;7870211;28;20260;-63
2021/12/28 13:13:25;;;;;;;55.85;25.58;;;20.80;62.10;;;;;;7870445;28;20197;-62
2021/12/28 13:17:17;;;;;;;60.95;26.98;;;20.80;62.10;;;;;;7842917;28;20200;-63
2021/12/28 13:21:03;;;;;;;57.35;25.80;;;20.80;62.10;;;;;;7853671;28;20202;-63
2021/12/28 13:24:49;;;;;;;56.63;24.75;;;20.80;62.20;;;;;;7846619;28;20189;-63
2021/12/28 13:28:34;;;;;;;49.50;23.88;;;20.80;62.10;;;;;;7839870;28;20265;-63
2021/12/28 13:32:21;;;;;;;47.60;22.77;;;20.80;62.30;;;;;;7839033;28;20222;-64
2021/12/28 13:36:06;;;;;;;51.78;23.15;;;20.80;62.40;;;;;;7839162;28;20184;-63
2021/12/28 13:39:59;;;;;;;59.25;23.30;;;20.80;62.40;;;;;;7867148;28;20177;-63
2021/12/28 13:43:44;;;;;;;46.13;20.83;;;20.80;62.20;;;;;;7901458;28;20196;-63
2021/12/28 13:47:30;;;;;;;46.22;21.65;;;20.80;62.40;;;;;;7900871;28;20664;-62
2021/12/28 13:51:23;;;;;;;46.30;20.75;;;20.80;62.40;;;;;;7900943;28;20208;-62
2021/12/28 13:55:11;;;;;;;44.20;19.90;;;20.80;62.40;;;;;;7901845;28;20168;-62
2021/12/28 13:58:56;;;;;;;40.53;18.52;;;20.80;62.40;;;;;;7900476;28;20169;-62
2021/12/28 14:03:05;;;;;;;48.03;19.77;;;20.80;62.40;;;;;;7901014;28;20192;-62
2021/12/28 14:06:55;;;;;;;37.10;18.27;;;20.80;62.40;;;;;;7838486;28;20174;-63
2021/12/28 14:10:41;;;;;;;39.05;18.15;;;20.70;62.30;;;;;;7837776;28;20186;-62
2021/12/28 14:14:33;;;;;;;37.28;17.73;;;20.70;62.40;;;;;;7838088;28;20284;-63
2021/12/28 14:18:30;;;;;;;37.30;16.40;;;20.70;62.40;;;;;;7837573;28;20280;-62
2021/12/28 14:22:17;;;;;;;30.40;15.88;;;20.70;62.40;;;;;;7838160;28;20236;-62
2021/12/28 14:26:14;;;;;;;38.75;16.58;;;20.70;62.40;;;;;;7838033;28;20186;-63
2021/12/28 14:30:11;;;;;;;34.22;15.40;;;20.70;62.40;;;;;;7836406;28;20178;-62
2021/12/28 14:33:59;;;;;;;28.70;14.10;;;20.70;62.10;;;;;;7837916;28;20209;-61
2021/12/28 14:37:46;;;;;;;37.97;15.00;;;20.70;62.30;;;;;;7838001;28;20182;-62
2021/12/28 14:41:32;;;;;;;31.50;15.15;;;20.70;62.30;;;;;;7873148;28;20208;-62
2021/12/28 14:45:24;;;;;;;33.08;15.57;;;20.70;62.30;;;;;;7898787;28;20204;-62
2021/12/28 14:49:24;;;;;;;30.00;14.52;;;20.60;62.30;;;;;;7899470;28;20176;-62
2021/12/28 14:53:19;;;;;;;30.13;13.52;;;20.70;62.50;;;;;;7899834;28;20257;-62
2021/12/28 14:57:04;;;;;;;31.73;12.98;;;20.60;62.50;;;;;;7882841;28;20181;-62
2021/12/28 15:00:54;;;;;;;31.00;12.90;;;20.60;62.30;;;;;;7868049;28;20713;-62
2021/12/28 15:04:40;;;;;;;26.15;12.63;;;20.60;62.40;;;;;;7868671;28;20169;-62
2021/12/28 15:08:31;;;;;;;27.77;12.88;;;20.60;62.40;;;;;;7867927;28;20188;-62
2021/12/28 15:12:16;;;;;;;22.75;11.50;;;20.60;62.50;;;;;;7868419;28;20213;-60
2021/12/28 15:16:03;;;;;;;26.50;13.02;;;20.60;62.40;;;;;;7868450;28;20201;-62
2021/12/28 15:19:48;;;;;;;28.60;11.75;;;20.60;62.40;;;;;;7866629;28;20208;-63
2021/12/28 15:23:37;;;;;;;24.85;11.30;;;20.60;62.40;;;;;;7868321;28;20201;-62
2021/12/28 15:27:22;;;;;;;23.27;11.15;;;20.60;62.30;;;;;;7868356;28;20173;-62
2021/12/28 15:31:08;;;;;;;19.20;10.40;;;20.70;62.40;;;;;;7867804;28;20205;-62
2021/12/28 15:34:53;;;;;;;22.70;10.23;;;20.70;62.40;;;;;;7868417;28;20209;-62
2021/12/28 15:38:44;;;;;;;18.92;9.73;;;20.70;62.20;;;;;;7859313;28;20182;-63
2021/12/28 15:42:32;;;;;;;19.05;10.75;;;20.70;62.20;;;;;;7872350;28;20212;-62
2021/12/28 15:46:18;;;;;;;20.25;10.25;;;20.70;62.20;;;;;;7873679;28;20173;-61
2021/12/28 15:50:06;;;;;;;18.85;9.73;;;20.80;62.10;;;;;;7872694;28;20203;-62
2021/12/28 15:53:53;;;;;;;17.85;9.35;;;20.80;62.20;;;;;;7873242;28;20769;-61
2021/12/28 15:57:39;;;;;;;21.27;9.30;;;20.80;62.10;;;;;;7872407;28;20162;-62
2021/12/28 16:01:25;;;;;;;17.17;9.00;;;20.90;62.00;;;;;;7872899;28;20288;-61
2021/12/28 16:05:11;;;;;;;20.92;9.82;;;20.90;61.90;;;;;;7872959;28;20184;-60
2021/12/28 16:08:57;;;;;;;18.55;9.57;;;20.90;61.90;;;;;;7870895;28;20172;-60
2021/12/28 16:12:42;;;;;;;15.32;8.63;;;20.90;61.90;;;;;;7872512;28;20227;-59
2021/12/28 16:16:28;;;;;;;21.45;8.60;;;20.90;61.80;;;;;;7872602;28;20174;-62
2021/12/28 16:20:13;;;;;;;20.05;8.88;;;21.00;61.80;;;;;;7871767;28;20181;-62
2021/12/28 16:23:59;;;;;;;14.82;8.23;;;21.00;61.80;;;;;;7872344;28;20554;-62
2021/12/28 16:27:45;;;;;;;23.73;8.55;;;21.00;61.80;;;;;;7871497;28;20181;-62
2021/12/28 16:31:30;;;;;;;17.33;8.50;;;21.00;61.80;;;;;;7872081;28;20208;-62
2021/12/28 16:35:16;;;;;;;24.77;9.30;;;21.00;61.70;;;;;;7869047;28;20189;-62
2021/12/28 16:39:01;;;;;;;20.45;8.30;;;21.00;62.00;;;;;;7874156;28;20597;-61
2021/12/28 16:42:47;;;;;;;22.38;8.35;;;21.10;61.80;;;;;;7865154;28;20206;-61
2021/12/28 16:46:34;;;;;;;22.98;8.18;;;21.10;61.70;;;;;;7840404;28;20194;-61
2021/12/28 16:50:24;;;;;;;13.50;8.25;;;21.10;61.70;;;;;;7839332;28;20693;-62
2021/12/28 16:54:10;;;;;;;21.73;8.40;;;21.10;61.70;;;;;;7839390;28;20209;-62
2021/12/28 16:57:55;;;;;;;11.35;8.18;;;21.10;61.60;;;;;;7839769;28;20522;-62
2021/12/28 17:01:41;;;;;;;14.68;9.20;;;21.20;61.40;;;;;;7840355;28;20202;-62
2021/12/28 17:05:27;;;;;;;15.40;9.13;;;21.20;61.00;;;;;;7860127;28;20185;-61
2021/12/28 17:09:12;;;;;;;17.63;8.57;;;21.30;61.00;;;;;;7870289;28;20192;-62
2021/12/28 17:12:58;;;;;;;21.20;9.05;;;21.30;60.70;;;;;;7871038;28;20221;-62
2021/12/28 17:16:43;;;;;;;17.77;8.57;;;21.30;60.80;;;;;;7871083;28;20173;-62
2021/12/28 17:20:29;;;;;;;16.33;7.75;;;21.40;60.80;;;;;;7870406;28;20565;-62
2021/12/28 17:24:14;;;;;;;22.35;7.95;;;21.50;61.10;;;;;;7870729;28;20215;-62
2021/12/28 17:28:00;;;;;;;11.35;7.18;;;21.60;62.20;;;;;;7869822;28;20200;-62
2021/12/28 17:31:46;;;;;;;16.20;6.50;;;21.70;62.60;;;;;;7870417;28;20209;-62
2021/12/28 17:35:32;;;;;;;20.05;6.65;;;21.90;63.10;;;;;;7870297;28;20177;-62
2021/12/28 17:39:18;;;;;;;19.17;6.60;;;22.10;63.20;;;;;;7869461;28;20698;-62
2021/12/28 17:43:05;;;;;;;23.08;10.32;;;22.30;63.10;;;;;;7869825;28;20597;-62
2021/12/28 17:46:50;;;;;;;16.63;7.25;;;22.40;62.80;;;;;;7869545;28;20234;-62
2021/12/28 17:50:37;;;;;;;13.50;6.75;;;22.60;63.20;;;;;;7868880;28;20228;-62
2021/12/28 17:54:23;;;;;;;13.95;8.25;;;22.70;63.10;;;;;;7868429;28;20208;-62
2021/12/28 17:58:08;;;;;;;17.38;7.50;;;22.90;63.00;;;;;;7867718;28;20355;-62
2021/12/28 18:01:54;;;;;;;12.93;7.72;;;23.00;63.10;;;;;;7868276;28;20205;-62
2021/12/28 18:05:41;;;;;;;18.85;8.20;;;23.10;63.00;;;;;;7867927;28;20646;-62
2021/12/28 18:09:28;;;;;;;14.65;7.90;;;23.10;63.00;;;;;;7867410;28;20177;-62
2021/12/28 18:13:13;;;;;;;12.20;7.70;;;23.10;63.00;;;;;;7867977;28;20266;-62
2021/12/28 18:16:59;;;;;;;11.75;7.75;;;23.00;63.10;;;;;;7867835;28;20256;-62
2021/12/28 18:20:46;;;;;;;13.80;8.00;;;23.00;63.20;;;;;;7867031;28;20658;-62
2021/12/28 18:24:32;;;;;;;12.77;7.45;;;23.00;63.40;;;;;;7867736;28;20571;-62
2021/12/28 18:28:18;;;;;;;15.20;8.02;;;22.90;63.40;;;;;;7867010;28;20409;-62
2021/12/28 18:32:06;;;;;;;10.93;7.13;;;22.90;63.60;;;;;;7867658;28;20216;-62
2021/12/28 18:35:53;;;;;;;15.20;7.68;;;22.90;63.80;;;;;;7868080;28;20193;-62
2021/12/28 18:39:38;;;;;;;10.57;7.50;;;22.80;63.90;;;;;;7867062;28;20515;-62
2021/12/28 18:43:24;;;;;;;12.95;7.85;;;22.80;64.10;;;;;;7868871;28;20204;-62
2021/12/28 18:47:11;;;;;;;12.93;7.55;;;22.70;64.20;;;;;;7892141;28;20188;-62
2021/12/28 18:50:58;;;;;;;19.52;10.60;;;22.70;64.10;;;;;;7863415;28;990958;-60
2021/12/28 18:54:44;;;;;;;18.63;9.93;;;22.60;64.40;;;;;;7867666;28;20297;-62
2021/12/28 18:58:32;;;;;;;26.52;11.05;;;22.60;64.70;;;;;;7850699;28;20182;-62
2021/12/28 19:02:18;;;;;;;22.55;12.05;;;22.60;65.00;;;;;;7868195;28;20212;-62
2021/12/28 19:06:03;;;;;;;20.60;12.88;;;22.60;65.30;;;;;;7866711;28;20189;-62
2021/12/28 19:09:49;;;;;;;21.83;13.20;;;22.70;65.50;;;;;;7867918;28;20186;-62
2021/12/28 19:13:37;;;;;;;24.55;14.00;;;22.80;65.40;;;;;;7842739;28;20299;-62
2021/12/28 19:17:22;;;;;;;24.63;13.80;;;23.00;65.40;;;;;;7854952;28;20172;-62